Time;durP1;ratioP1;P1;durP2;ratioP2;P2;SDS_P1;SDS_P2;PMS_P1;PMS_P2;Temp;Humidity;BMP_temperature;BMP_pressure;BME280_temperature;BME280_humidity;BME280_pressure;Samples;Min_cycle;Max_cycle;Signal;HPM_P1;HPM_P2
2023/05/15 00:00:15;;;;;;;5.15;3.03;;;;;14.00;98241.00;;;;5054084;28;20045;-67
2023/05/15 00:02:43;;;;;;;3.13;2.83;;;;;14.00;98249.00;;;;5053804;28;20450;-67
2023/05/15 00:05:11;;;;;;;3.38;3.05;;;;;13.90;98235.00;;;;5054275;28;20033;-68
2023/05/15 00:07:39;;;;;;;4.60;2.88;;;;;14.00;98243.00;;;;5055459;28;20064;-68
2023/05/15 00:10:06;;;;;;;3.47;3.17;;;;;14.00;98244.00;;;;5058633;28;20466;-68
2023/05/15 00:12:33;;;;;;;3.25;2.95;;;;;13.80;98236.00;;;;5061804;28;20049;-67
2023/05/15 00:15:00;;;;;;;4.13;2.97;;;;;13.70;98237.00;;;;5060060;28;20041;-68
2023/05/15 00:17:26;;;;;;;3.20;2.90;;;;;13.70;98236.00;;;;5059769;28;20443;-68
2023/05/15 00:19:57;;;;;;;5.22;3.08;;;;;13.60;98236.00;;;;5062194;28;20037;-68
2023/05/15 00:22:25;;;;;;;5.57;3.10;;;;;13.50;98229.00;;;;5064116;28;20532;-68
2023/05/15 00:24:52;;;;;;;3.33;2.88;;;;;13.60;98237.00;;;;5065010;28;20397;-68
2023/05/15 00:27:18;;;;;;;4.35;3.08;;;;;13.60;98231.00;;;;5067606;28;20049;-68
2023/05/15 00:29:45;;;;;;;3.78;3.00;;;;;13.60;98228.00;;;;5066480;28;20049;-68
2023/05/15 00:32:11;;;;;;;4.05;3.40;;;;;13.50;98238.00;;;;5067744;28;20049;-67
2023/05/15 00:34:38;;;;;;;4.18;3.05;;;;;13.30;98237.00;;;;5067092;28;20107;-67
2023/05/15 00:37:05;;;;;;;4.47;3.25;;;;;13.20;98228.00;;;;5050367;28;20513;-68
2023/05/15 00:39:31;;;;;;;3.03;2.80;;;;;13.20;98230.00;;;;5059264;28;20402;-68
2023/05/15 00:41:59;;;;;;;4.00;2.80;;;;;13.20;98228.00;;;;5044100;28;20120;-68
2023/05/15 00:44:30;;;;;;;4.10;3.10;;;;;13.10;98220.00;;;;5060112;28;20037;-68
2023/05/15 00:46:58;;;;;;;4.30;3.08;;;;;13.10;98228.00;;;;5059007;28;20048;-68
2023/05/15 00:49:26;;;;;;;3.05;2.83;;;;;13.10;98226.00;;;;5040271;28;20053;-67
2023/05/15 00:51:53;;;;;;;4.18;3.00;;;;;13.00;98219.00;;;;5059107;28;20048;-68
2023/05/15 00:54:19;;;;;;;4.20;2.88;;;;;12.90;98224.00;;;;5062789;28;20044;-68
2023/05/15 00:56:48;;;;;;;5.10;2.88;;;;;12.80;98222.00;;;;5040428;28;20045;-67
2023/05/15 00:59:16;;;;;;;5.00;3.30;;;;;12.70;98218.00;;;;5057763;28;20111;-68
2023/05/15 01:01:44;;;;;;;3.90;3.20;;;;;12.70;98224.00;;;;5058573;28;20125;-68
2023/05/15 01:04:10;;;;;;;3.50;3.03;;;;;12.60;98227.00;;;;5059988;28;20045;-67
2023/05/15 01:06:37;;;;;;;5.53;3.47;;;;;12.70;98215.00;;;;5059797;28;20548;-68
2023/05/15 01:09:05;;;;;;;3.58;2.60;;;;;12.80;98215.00;;;;5061921;28;20302;-68
2023/05/15 01:11:36;;;;;;;4.55;3.00;;;;;12.90;98215.00;;;;5060902;28;20060;-67
2023/05/15 01:14:05;;;;;;;5.82;3.53;;;;;12.90;98220.00;;;;5059951;28;20080;-67
2023/05/15 01:16:32;;;;;;;3.25;2.78;;;;;12.90;98222.00;;;;5042200;28;20052;-67
2023/05/15 01:19:01;;;;;;;3.40;2.90;;;;;12.90;98217.00;;;;5058806;28;20045;-68
2023/05/15 01:21:37;;;;;;;3.85;3.30;;;;;12.90;98216.00;;;;5056426;28;20045;-68
2023/05/15 01:24:22;;;;;;;2.80;2.60;;;;;12.90;98214.00;;;;5056527;28;20052;-67
2023/05/15 01:27:26;;;;;;;4.32;3.00;;;;;13.00;98219.00;;;;5055880;28;20060;-68
2023/05/15 01:30:13;;;;;;;4.22;3.20;;;;;13.00;98214.00;;;;5057892;28;20049;-68
2023/05/15 01:32:56;;;;;;;3.97;3.30;;;;;13.10;98216.00;;;;5058939;28;20040;-68
2023/05/15 01:35:28;;;;;;;4.97;3.25;;;;;13.10;98210.00;;;;5056759;28;20399;-68
2023/05/15 01:38:37;;;;;;;3.30;3.00;;;;;13.20;98208.00;;;;5057260;28;20056;-68
2023/05/15 01:41:15;;;;;;;3.80;3.40;;;;;13.20;98198.00;;;;5045729;28;20532;-68
2023/05/15 01:43:44;;;;;;;4.80;3.47;;;;;13.10;98200.00;;;;5042157;28;20053;-68
2023/05/15 01:46:18;;;;;;;3.17;2.80;;;;;13.10;98203.00;;;;5062656;28;20037;-67
2023/05/15 01:48:47;;;;;;;4.07;3.25;;;;;13.10;98199.00;;;;5059933;28;20139;-68
2023/05/15 01:51:14;;;;;;;5.85;3.35;;;;;13.10;98201.00;;;;5054844;28;20049;-68
2023/05/15 01:53:43;;;;;;;5.03;3.47;;;;;13.10;98206.00;;;;5054725;28;20409;-69
2023/05/15 01:56:13;;;;;;;5.03;3.08;;;;;12.90;98204.00;;;;5054432;28;20048;-69
2023/05/15 01:58:41;;;;;;;5.68;3.83;;;;;12.70;98204.00;;;;5054650;28;20053;-66
2023/05/15 02:01:09;;;;;;;3.60;3.30;;;;;12.60;98205.00;;;;5053683;28;20563;-67
2023/05/15 02:03:36;;;;;;;4.47;3.00;;;;;12.50;98205.00;;;;5053859;28;20071;-67
2023/05/15 02:06:04;;;;;;;3.85;3.22;;;;;12.50;98203.00;;;;5053751;28;20506;-66
2023/05/15 02:08:32;;;;;;;3.97;2.90;;;;;12.40;98209.00;;;;5053458;28;20041;-67
2023/05/15 02:11:00;;;;;;;5.40;3.08;;;;;12.30;98204.00;;;;5052825;28;20073;-66
2023/05/15 02:13:27;;;;;;;4.07;2.83;;;;;12.30;98206.00;;;;5053434;28;20045;-66
2023/05/15 02:15:54;;;;;;;2.90;2.70;;;;;12.30;98198.00;;;;5053137;28;20037;-66
2023/05/15 02:18:21;;;;;;;4.05;2.83;;;;;12.30;98207.00;;;;5053149;28;20716;-67
2023/05/15 02:20:48;;;;;;;4.32;3.03;;;;;12.30;98211.00;;;;5054293;28;20048;-67
2023/05/15 02:23:14;;;;;;;4.80;2.97;;;;;12.40;98213.00;;;;5053690;28;20053;-66
2023/05/15 02:26:07;;;;;;;2.92;2.60;;;;;12.50;98211.00;;;;5055484;28;20662;-67
2023/05/15 02:28:43;;;;;;;6.13;3.35;;;;;12.50;98208.00;;;;5053757;28;20486;-67
2023/05/15 02:31:22;;;;;;;4.05;2.78;;;;;12.50;98208.00;;;;5054309;28;20488;-67
2023/05/15 02:33:58;;;;;;;3.60;2.90;;;;;12.50;98204.00;;;;5054252;28;20120;-67
2023/05/15 02:36:31;;;;;;;4.70;3.35;;;;;12.50;98202.00;;;;5053797;28;20041;-67
2023/05/15 02:38:58;;;;;;;3.92;2.75;;;;;12.40;98204.00;;;;5035168;28;20107;-67
2023/05/15 02:41:25;;;;;;;3.67;2.60;;;;;12.30;98197.00;;;;5052990;28;20060;-67
2023/05/15 02:43:54;;;;;;;4.18;2.75;;;;;12.20;98194.00;;;;5052748;28;20045;-67
2023/05/15 02:46:23;;;;;;;6.15;3.05;;;;;12.30;98203.00;;;;5052464;28;20132;-67
2023/05/15 02:48:52;;;;;;;5.68;3.17;;;;;12.30;98194.00;;;;5052451;28;20095;-67
2023/05/15 02:51:19;;;;;;;4.18;3.17;;;;;12.30;98193.00;;;;5054179;28;20063;-67
2023/05/15 02:53:46;;;;;;;3.30;3.00;;;;;12.30;98189.00;;;;5036028;28;20055;-67
2023/05/15 02:56:13;;;;;;;3.47;3.17;;;;;12.40;98195.00;;;;5052426;28;20045;-67
2023/05/15 02:58:40;;;;;;;4.20;3.15;;;;;12.40;98188.00;;;;5054546;28;20041;-67
2023/05/15 03:01:07;;;;;;;4.90;3.38;;;;;12.30;98190.00;;;;5052674;28;20727;-67
2023/05/15 03:03:33;;;;;;;5.35;3.33;;;;;12.30;98197.00;;;;5052452;28;20572;-67
2023/05/15 03:06:00;;;;;;;4.03;3.40;;;;;12.30;98196.00;;;;5052978;28;20037;-67
2023/05/15 03:08:27;;;;;;;3.72;3.42;;;;;12.20;98194.00;;;;5052233;28;20473;-67
2023/05/15 03:10:54;;;;;;;5.07;2.90;;;;;12.20;98192.00;;;;5051762;28;20053;-67
2023/05/15 03:13:20;;;;;;;4.40;3.38;;;;;12.20;98192.00;;;;5052264;28;20474;-66
2023/05/15 03:15:47;;;;;;;5.40;3.53;;;;;12.20;98184.00;;;;5053369;28;20052;-67
2023/05/15 03:18:14;;;;;;;5.50;3.30;;;;;12.20;98180.00;;;;5058303;28;20117;-67
2023/05/15 03:20:44;;;;;;;6.68;5.65;;;;;12.30;98181.00;;;;5057581;28;20139;-67
2023/05/15 03:23:11;;;;;;;4.78;3.65;;;;;12.30;98178.00;;;;5069948;28;20060;-67
2023/05/15 03:25:37;;;;;;;5.28;3.78;;;;;12.30;98174.00;;;;5051641;28;20055;-67
2023/05/15 03:28:04;;;;;;;5.38;3.75;;;;;12.40;98176.00;;;;5034968;28;20052;-67
2023/05/15 03:30:31;;;;;;;5.07;3.60;;;;;12.40;98176.00;;;;5051797;28;20382;-66
2023/05/15 03:32:57;;;;;;;5.07;3.22;;;;;12.40;98190.00;;;;5052187;28;20140;-65
2023/05/15 03:35:25;;;;;;;4.82;3.60;;;;;12.30;98182.00;;;;5051349;28;20490;-66
2023/05/15 03:37:51;;;;;;;6.68;3.75;;;;;12.10;98184.00;;;;5035334;28;20418;-66
2023/05/15 03:40:18;;;;;;;6.65;4.35;;;;;12.00;98185.00;;;;5051873;28;20128;-66
2023/05/15 03:42:45;;;;;;;6.07;3.63;;;;;12.00;98194.00;;;;5035544;28;20447;-66
2023/05/15 03:45:11;;;;;;;3.85;3.45;;;;;12.00;98197.00;;;;5051867;28;20490;-66
2023/05/15 03:47:38;;;;;;;4.93;3.50;;;;;12.20;98197.00;;;;5052923;28;20043;-67
2023/05/15 03:50:05;;;;;;;5.53;3.80;;;;;12.30;98201.00;;;;5051586;28;20494;-67
2023/05/15 03:52:32;;;;;;;7.88;5.88;;;;;12.30;98194.00;;;;5053191;28;20041;-66
2023/05/15 03:54:58;;;;;;;6.60;4.78;;;;;12.30;98201.00;;;;5053135;28;20041;-67
2023/05/15 03:57:25;;;;;;;4.13;3.55;;;;;12.20;98203.00;;;;5052464;28;20049;-68
2023/05/15 03:59:52;;;;;;;3.50;3.20;;;;;12.20;98195.00;;;;5051696;28;20045;-67
2023/05/15 04:02:18;;;;;;;5.07;3.33;;;;;12.20;98200.00;;;;5035401;28;20069;-67
2023/05/15 04:04:45;;;;;;;6.32;4.28;;;;;12.10;98199.00;;;;5051535;28;20098;-68
2023/05/15 04:07:11;;;;;;;11.65;7.30;;;;;12.10;98192.00;;;;5051939;28;20502;-67
2023/05/15 04:09:38;;;;;;;13.93;8.35;;;;;12.20;98195.00;;;;5052819;28;20041;-67
2023/05/15 04:12:05;;;;;;;6.82;4.22;;;;;12.30;98197.00;;;;5053145;28;20049;-67
2023/05/15 04:14:31;;;;;;;3.40;3.10;;;;;12.30;98197.00;;;;5051394;28;20482;-66
2023/05/15 04:16:58;;;;;;;6.32;4.82;;;;;12.30;98199.00;;;;5051324;28;20051;-67
2023/05/15 04:19:24;;;;;;;7.78;4.80;;;;;12.50;98197.00;;;;5051198;28;20056;-67
2023/05/15 04:21:51;;;;;;;6.05;4.35;;;;;12.50;98210.00;;;;5052275;28;20053;-67
2023/05/15 04:24:17;;;;;;;6.28;4.50;;;;;12.60;98209.00;;;;5051957;28;20139;-66
2023/05/15 04:26:44;;;;;;;6.35;3.38;;;;;12.50;98200.00;;;;5052307;28;20552;-68
2023/05/15 04:29:10;;;;;;;3.83;3.33;;;;;12.50;98206.00;;;;5050568;28;20053;-68
2023/05/15 04:31:37;;;;;;;5.45;3.88;;;;;12.50;98208.00;;;;5052438;28;20048;-66
2023/05/15 04:34:04;;;;;;;4.80;3.63;;;;;12.50;98212.00;;;;5050974;28;20051;-69
2023/05/15 04:36:31;;;;;;;4.63;3.28;;;;;12.50;98210.00;;;;5050713;28;20049;-68
2023/05/15 04:38:57;;;;;;;4.60;3.47;;;;;12.60;98220.00;;;;5051698;28;20048;-67
2023/05/15 04:41:24;;;;;;;4.55;3.75;;;;;12.80;98215.00;;;;5052354;28;20072;-66
2023/05/15 04:43:50;;;;;;;4.43;3.95;;;;;12.90;98219.00;;;;5052353;28;20513;-66
2023/05/15 04:46:17;;;;;;;6.13;3.90;;;;;13.00;98213.00;;;;5051017;28;20049;-66
2023/05/15 04:48:43;;;;;;;8.13;6.35;;;;;13.10;98205.00;;;;5051783;28;20045;-67
2023/05/15 04:51:11;;;;;;;6.15;4.63;;;;;13.00;98207.00;;;;5051781;28;20049;-67
2023/05/15 04:53:37;;;;;;;6.93;3.90;;;;;13.00;98204.00;;;;5050526;28;20521;-67
2023/05/15 04:56:04;;;;;;;3.92;3.47;;;;;13.10;98206.00;;;;5050857;28;20505;-67
2023/05/15 04:58:30;;;;;;;4.93;3.58;;;;;13.20;98210.00;;;;5052936;28;20048;-69
2023/05/15 05:00:57;;;;;;;4.00;3.60;;;;;13.30;98197.00;;;;5051645;28;20041;-68
2023/05/15 05:03:23;;;;;;;6.93;4.90;;;;;13.40;98204.00;;;;5055643;28;20049;-68
2023/05/15 05:05:50;;;;;;;5.38;4.10;;;;;13.50;98205.00;;;;5057553;28;20040;-68
2023/05/15 05:08:17;;;;;;;7.25;5.53;;;;;13.60;98206.00;;;;5056675;28;20045;-69
2023/05/15 05:10:43;;;;;;;5.57;4.93;;;;;13.60;98209.00;;;;5055341;28;20045;-70
2023/05/15 05:13:10;;;;;;;6.82;3.95;;;;;13.50;98200.00;;;;5056810;28;20094;-67
2023/05/15 05:15:36;;;;;;;6.03;4.07;;;;;13.50;98208.00;;;;5055693;28;20044;-68
2023/05/15 05:18:03;;;;;;;6.15;5.35;;;;;13.70;98204.00;;;;5056425;28;20045;-68
2023/05/15 05:20:30;;;;;;;5.68;4.57;;;;;13.80;98199.00;;;;5038417;28;20442;-69
2023/05/15 05:22:56;;;;;;;5.05;4.00;;;;;13.80;98206.00;;;;5056768;28;20045;-69
2023/05/15 05:25:23;;;;;;;4.25;3.85;;;;;13.80;98205.00;;;;5056033;28;20049;-69
2023/05/15 05:27:50;;;;;;;5.50;3.95;;;;;13.80;98211.00;;;;5056839;28;20059;-68
2023/05/15 05:30:17;;;;;;;5.80;4.60;;;;;13.80;98204.00;;;;5057209;28;20515;-69
2023/05/15 05:32:44;;;;;;;6.88;5.65;;;;;13.80;98210.00;;;;5058838;28;20063;-69
2023/05/15 05:35:10;;;;;;;8.20;5.05;;;;;13.80;98206.00;;;;5058178;28;20048;-69
2023/05/15 05:37:37;;;;;;;7.18;4.20;;;;;13.90;98206.00;;;;5057930;28;20135;-69
2023/05/15 05:40:07;;;;;;;8.95;5.10;;;;;14.20;98208.00;;;;5056600;28;20453;-69
2023/05/15 05:42:34;;;;;;;7.90;4.40;;;;;14.20;98211.00;;;;5038837;28;20053;-68
2023/05/15 05:45:01;;;;;;;6.60;4.57;;;;;14.30;98208.00;;;;5055201;28;20044;-69
2023/05/15 05:47:27;;;;;;;6.53;4.22;;;;;14.20;98209.00;;;;5056421;28;20109;-69
2023/05/15 05:49:54;;;;;;;7.82;4.57;;;;;14.10;98211.00;;;;5055102;28;20052;-69
2023/05/15 05:52:21;;;;;;;6.32;4.20;;;;;14.10;98203.00;;;;5055196;28;20045;-69
2023/05/15 05:54:47;;;;;;;8.68;4.53;;;;;14.10;98203.00;;;;5055047;28;20064;-69
2023/05/15 05:57:14;;;;;;;6.93;4.40;;;;;14.20;98207.00;;;;5054983;28;20045;-69
2023/05/15 05:59:41;;;;;;;4.85;4.35;;;;;14.30;98205.00;;;;5055252;28;20049;-70
2023/05/15 06:02:08;;;;;;;5.03;4.30;;;;;14.40;98211.00;;;;5056132;28;20041;-69
2023/05/15 06:04:34;;;;;;;6.15;4.10;;;;;14.50;98203.00;;;;5054736;28;20418;-70
2023/05/15 06:07:02;;;;;;;4.68;4.20;;;;;14.40;98207.00;;;;5054953;28;20079;-68
2023/05/15 06:09:28;;;;;;;7.03;4.70;;;;;14.40;98202.00;;;;5054179;28;20103;-68
2023/05/15 06:11:55;;;;;;;9.05;4.65;;;;;14.50;98205.00;;;;5054895;28;20049;-72
2023/05/15 06:14:22;;;;;;;5.80;4.10;;;;;14.60;98206.00;;;;5055198;28;20045;-68
2023/05/15 06:16:49;;;;;;;6.22;4.22;;;;;14.70;98207.00;;;;5055692;28;20504;-70
2023/05/15 06:19:15;;;;;;;8.32;4.07;;;;;14.80;98202.00;;;;5053946;28;20047;-66
2023/05/15 06:21:42;;;;;;;7.53;5.28;;;;;14.80;98206.00;;;;5054003;28;20037;-67
2023/05/15 06:24:09;;;;;;;9.43;5.28;;;;;14.80;98205.00;;;;5052994;28;20063;-67
2023/05/15 06:26:35;;;;;;;9.55;4.90;;;;;14.80;98201.00;;;;5053099;28;20048;-67
2023/05/15 06:29:02;;;;;;;7.07;5.55;;;;;14.90;98208.00;;;;5036591;28;20052;-67
2023/05/15 06:31:28;;;;;;;9.23;5.65;;;;;14.90;98214.00;;;;5052754;28;20064;-66
2023/05/15 06:33:55;;;;;;;5.35;4.85;;;;;15.00;98213.00;;;;5053320;28;20072;-66
2023/05/15 06:36:22;;;;;;;7.10;5.15;;;;;15.10;98219.00;;;;5053404;28;20406;-68
2023/05/15 06:38:48;;;;;;;5.22;4.72;;;;;15.20;98211.00;;;;5052838;28;20049;-66
2023/05/15 06:41:15;;;;;;;5.13;4.10;;;;;15.40;98218.00;;;;5053000;28;20041;-66
2023/05/15 06:43:41;;;;;;;6.90;5.20;;;;;15.50;98218.00;;;;5052983;28;20049;-66
2023/05/15 06:46:08;;;;;;;6.50;5.07;;;;;15.70;98212.00;;;;5053273;28;20059;-65
2023/05/15 06:48:35;;;;;;;5.57;4.53;;;;;15.70;98218.00;;;;5036461;28;20045;-66
2023/05/15 06:51:02;;;;;;;12.05;4.63;;;;;15.70;98220.00;;;;5053949;28;20049;-67
2023/05/15 06:53:29;;;;;;;4.72;4.32;;;;;15.90;98219.00;;;;5053467;28;20113;-67
2023/05/15 06:55:55;;;;;;;4.63;4.22;;;;;16.00;98223.00;;;;5053057;28;20044;-69
2023/05/15 06:58:22;;;;;;;4.38;3.92;;;;;16.10;98221.00;;;;5054194;28;20397;-67
2023/05/15 07:00:48;;;;;;;4.75;4.25;;;;;16.30;98219.00;;;;5054170;28;20391;-69
2023/05/15 07:03:15;;;;;;;5.18;4.00;;;;;16.40;98221.00;;;;5053898;28;20048;-69
2023/05/15 07:05:42;;;;;;;5.85;4.20;;;;;16.50;98216.00;;;;5053655;28;20053;-69
2023/05/15 07:08:08;;;;;;;3.97;3.67;;;;;16.50;98222.00;;;;5053743;28;20098;-69
2023/05/15 07:10:35;;;;;;;5.72;4.25;;;;;16.60;98228.00;;;;5036068;28;20501;-69
2023/05/15 07:13:01;;;;;;;5.75;3.80;;;;;16.70;98214.00;;;;5054103;28;20049;-69
2023/05/15 07:15:28;;;;;;;4.43;3.50;;;;;16.70;98218.00;;;;5053618;28;20559;-69
2023/05/15 07:17:54;;;;;;;3.95;3.40;;;;;16.80;98221.00;;;;5047376;28;20051;-70
2023/05/15 07:20:21;;;;;;;4.72;3.80;;;;;16.90;98225.00;;;;5068798;28;20052;-70
2023/05/15 07:22:48;;;;;;;5.90;3.80;;;;;17.00;98216.00;;;;5063048;28;20149;-68
2023/05/15 07:25:23;;;;;;;5.97;3.85;;;;;17.10;98218.00;;;;5053408;28;20043;-68
2023/05/15 07:27:50;;;;;;;5.13;4.40;;;;;17.10;98213.00;;;;5055082;28;20057;-68
2023/05/15 07:30:17;;;;;;;5.43;4.45;;;;;17.00;98211.00;;;;5053391;28;20044;-68
2023/05/15 07:32:44;;;;;;;5.07;4.57;;;;;17.10;98213.00;;;;5052445;28;20049;-68
2023/05/15 07:35:10;;;;;;;4.70;4.03;;;;;17.20;98215.00;;;;5053538;28;20456;-68
2023/05/15 07:37:37;;;;;;;4.97;3.97;;;;;17.30;98207.00;;;;5035882;28;20055;-68
2023/05/15 07:40:05;;;;;;;5.82;4.20;;;;;17.40;98208.00;;;;5053196;28;20045;-68
2023/05/15 07:42:31;;;;;;;5.43;3.80;;;;;17.50;98212.00;;;;5052059;28;20044;-67
2023/05/15 07:44:58;;;;;;;4.15;3.75;;;;;17.60;98203.00;;;;5052866;28;20119;-67
2023/05/15 07:47:24;;;;;;;5.07;3.83;;;;;17.80;98207.00;;;;5051714;28;20045;-67
2023/05/15 07:49:51;;;;;;;3.95;3.58;;;;;17.90;98208.00;;;;5052857;28;20071;-68
2023/05/15 07:52:18;;;;;;;5.25;4.10;;;;;17.80;98214.00;;;;5051781;28;20041;-67
2023/05/15 07:54:45;;;;;;;4.50;3.88;;;;;17.90;98208.00;;;;5051710;28;20057;-68
2023/05/15 07:57:11;;;;;;;4.07;3.70;;;;;18.00;98210.00;;;;5051922;28;20041;-67
2023/05/15 07:59:38;;;;;;;8.30;4.05;;;;;18.00;98214.00;;;;5051661;28;20155;-67
2023/05/15 08:02:05;;;;;;;5.28;3.50;;;;;18.00;98206.00;;;;5035657;28;20056;-68
2023/05/15 08:04:32;;;;;;;5.07;3.85;;;;;18.10;98206.00;;;;5051353;28;20044;-67
2023/05/15 08:06:59;;;;;;;4.03;3.03;;;;;18.20;98208.00;;;;5051662;28;20055;-70
2023/05/15 08:09:26;;;;;;;8.07;3.75;;;;;18.40;98209.00;;;;5052138;28;20128;-67
2023/05/15 08:11:55;;;;;;;4.53;3.88;;;;;18.60;98204.00;;;;5051637;28;20481;-69
2023/05/15 08:14:21;;;;;;;3.58;3.25;;;;;18.70;98202.00;;;;5051188;28;20067;-69
2023/05/15 08:16:49;;;;;;;4.10;3.70;;;;;18.80;98209.00;;;;5052010;28;20044;-68
2023/05/15 08:19:15;;;;;;;8.95;4.63;;;;;18.80;98205.00;;;;5052080;28;20052;-68
2023/05/15 08:21:42;;;;;;;6.78;4.57;;;;;18.90;98207.00;;;;5034200;28;20045;-68
2023/05/15 08:24:09;;;;;;;6.60;3.97;;;;;19.00;98207.00;;;;5051275;28;20521;-67
2023/05/15 08:26:35;;;;;;;4.97;4.15;;;;;19.20;98210.00;;;;5052748;28;20041;-68
2023/05/15 08:29:02;;;;;;;5.50;4.18;;;;;19.30;98210.00;;;;5034893;28;20049;-67
2023/05/15 08:31:28;;;;;;;5.50;4.90;;;;;19.30;98208.00;;;;5051591;28;20049;-67
2023/05/15 08:33:55;;;;;;;4.88;4.43;;;;;19.40;98202.00;;;;5051218;28;20049;-67
2023/05/15 08:36:22;;;;;;;5.00;4.47;;;;;19.40;98205.00;;;;5052764;28;20041;-66
2023/05/15 08:38:48;;;;;;;5.38;4.25;;;;;19.40;98207.00;;;;5055870;28;20106;-67
2023/05/15 08:41:30;;;;;;;6.82;4.25;;;;;19.40;98210.00;;;;5055941;28;20048;-66
2023/05/15 08:44:08;;;;;;;5.65;4.22;;;;;19.30;98207.00;;;;5056950;28;20045;-67
2023/05/15 08:46:34;;;;;;;4.43;4.03;;;;;19.40;98204.00;;;;5038893;28;20139;-68
2023/05/15 08:49:28;;;;;;;3.78;3.38;;;;;19.60;98199.00;;;;5055764;28;20052;-67
2023/05/15 08:51:55;;;;;;;3.92;3.63;;;;;19.80;98196.00;;;;5052410;28;20114;-66
2023/05/15 08:54:23;;;;;;;4.93;4.05;;;;;20.00;98200.00;;;;5056490;28;20045;-66
2023/05/15 08:56:50;;;;;;;10.30;6.18;;;;;20.10;98201.00;;;;5055254;28;20045;-67
2023/05/15 08:59:17;;;;;;;5.00;3.70;;;;;20.20;98206.00;;;;5038072;28;20045;-67
2023/05/15 09:01:43;;;;;;;4.30;3.90;;;;;20.30;98203.00;;;;5054859;28;20037;-67
2023/05/15 09:04:10;;;;;;;5.60;3.80;;;;;20.40;98207.00;;;;5054936;28;20041;-68
2023/05/15 09:06:39;;;;;;;4.20;3.80;;;;;20.40;98203.00;;;;5038091;28;20128;-68
2023/05/15 09:09:08;;;;;;;4.07;3.78;;;;;20.40;98193.00;;;;5038314;28;20045;-67
2023/05/15 09:11:36;;;;;;;4.25;3.65;;;;;20.30;98200.00;;;;5055731;28;20136;-68
2023/05/15 09:14:03;;;;;;;4.72;3.78;;;;;20.30;98188.00;;;;5054310;28;20638;-67
2023/05/15 09:16:30;;;;;;;5.90;4.00;;;;;20.40;98184.00;;;;5055481;28;20037;-68
2023/05/15 09:18:57;;;;;;;4.30;3.90;;;;;20.60;98193.00;;;;5055271;28;20049;-68
2023/05/15 09:21:26;;;;;;;5.22;4.53;;;;;20.50;98187.00;;;;5055575;28;20041;-68
2023/05/15 09:24:16;;;;;;;7.03;5.13;;;;;20.70;98185.00;;;;5055508;28;20567;-67
2023/05/15 09:26:45;;;;;;;4.68;4.20;;;;;20.70;98186.00;;;;5054090;28;20044;-67
2023/05/15 09:29:15;;;;;;;4.97;4.28;;;;;20.80;98186.00;;;;5055005;28;20056;-67
2023/05/15 09:31:47;;;;;;;6.57;4.45;;;;;20.90;98191.00;;;;5052828;28;20098;-68
2023/05/15 09:34:14;;;;;;;4.78;4.20;;;;;20.90;98182.00;;;;5054142;28;20521;-66
2023/05/15 09:36:46;;;;;;;6.53;4.38;;;;;20.90;98185.00;;;;5054249;28;20037;-68
2023/05/15 09:39:12;;;;;;;4.45;3.42;;;;;20.90;98179.00;;;;5054837;28;20041;-70
2023/05/15 09:41:42;;;;;;;3.83;2.67;;;;;20.80;98170.00;;;;5054426;28;20067;-67
2023/05/15 09:44:42;;;;;;;3.20;2.90;;;;;20.90;98169.00;;;;5054276;28;20098;-68
2023/05/15 09:47:10;;;;;;;5.47;2.88;;;;;21.00;98172.00;;;;5045571;28;20118;-68
2023/05/15 09:49:37;;;;;;;3.55;3.00;;;;;21.10;98173.00;;;;5054278;28;20092;-67
2023/05/15 09:52:08;;;;;;;4.93;3.05;;;;;21.30;98178.00;;;;5055579;28;20047;-69
2023/05/15 09:54:36;;;;;;;3.42;3.13;;;;;21.30;98176.00;;;;5054922;28;20045;-66
2023/05/15 09:57:10;;;;;;;3.42;3.13;;;;;21.30;98171.00;;;;5053464;28;20045;-67
2023/05/15 09:59:47;;;;;;;3.67;2.90;;;;;21.30;98172.00;;;;5040971;28;20080;-65
2023/05/15 10:02:29;;;;;;;4.07;3.55;;;;;21.50;98174.00;;;;5059564;28;20056;-65
2023/05/15 10:04:57;;;;;;;4.30;3.47;;;;;21.60;98162.00;;;;5055837;28;20041;-67
2023/05/15 10:07:31;;;;;;;5.20;3.17;;;;;21.70;98161.00;;;;5055085;28;20624;-68
2023/05/15 10:09:59;;;;;;;3.33;2.85;;;;;21.70;98160.00;;;;5054916;28;20486;-69
2023/05/15 10:12:26;;;;;;;3.30;2.85;;;;;21.90;98161.00;;;;5055428;28;20041;-69
2023/05/15 10:14:56;;;;;;;5.55;3.42;;;;;22.00;98161.00;;;;5056163;28;20049;-69
2023/05/15 10:17:23;;;;;;;4.80;4.30;;;;;21.90;98154.00;;;;5053940;28;20405;-68
2023/05/15 10:19:50;;;;;;;5.75;5.00;;;;;21.70;98160.00;;;;5053933;28;20041;-68
2023/05/15 10:22:29;;;;;;;7.32;5.20;;;;;21.50;98161.00;;;;5054937;28;20041;-68
2023/05/15 10:25:27;;;;;;;5.28;4.68;;;;;21.40;98156.00;;;;5056096;28;20045;-68
2023/05/15 10:27:55;;;;;;;4.90;4.30;;;;;21.30;98145.00;;;;5054239;28;20056;-68
2023/05/15 10:30:22;;;;;;;7.82;5.03;;;;;21.50;98144.00;;;;5018918;28;1070054;-68
2023/05/15 10:32:50;;;;;;;7.05;5.57;;;;;21.80;98142.00;;;;5056271;28;20048;-68
2023/05/15 10:35:17;;;;;;;6.30;4.60;;;;;21.80;98140.00;;;;5056288;28;20040;-67
2023/05/15 10:37:47;;;;;;;6.00;5.30;;;;;21.90;98136.00;;;;5057162;28;20441;-66
2023/05/15 10:40:16;;;;;;;5.45;4.40;;;;;22.00;98130.00;;;;5057217;28;20048;-66
2023/05/15 10:42:44;;;;;;;7.78;4.95;;;;;22.20;98123.00;;;;5056262;28;20053;-66
2023/05/15 10:45:12;;;;;;;5.72;4.20;;;;;22.30;98126.00;;;;5056536;28;20315;-67
2023/05/15 10:47:40;;;;;;;4.50;4.10;;;;;22.60;98135.00;;;;5058110;28;20045;-66
2023/05/15 10:50:07;;;;;;;6.32;4.10;;;;;22.80;98119.00;;;;5061364;28;20045;-67
2023/05/15 10:52:38;;;;;;;4.25;3.85;;;;;23.00;98118.00;;;;5043790;28;20048;-64
2023/05/15 10:55:12;;;;;;;7.90;3.78;;;;;23.30;98115.00;;;;5057702;28;20041;-64
2023/05/15 10:57:39;;;;;;;5.22;4.50;;;;;23.50;98116.00;;;;5037942;28;20044;-63
2023/05/15 11:00:21;;;;;;;4.55;4.07;;;;;23.50;98116.00;;;;5053199;28;20098;-65
2023/05/15 11:02:52;;;;;;;6.50;4.10;;;;;23.50;98108.00;;;;5054745;28;20044;-67
2023/05/15 11:05:19;;;;;;;6.38;4.97;;;;;23.30;98109.00;;;;5055122;28;20489;-64
2023/05/15 11:08:17;;;;;;;5.78;5.28;;;;;23.30;98099.00;;;;5055074;28;20033;-65
2023/05/15 11:10:44;;;;;;;5.05;4.50;;;;;23.30;98092.00;;;;5039288;28;20053;-65
2023/05/15 11:13:10;;;;;;;5.55;4.45;;;;;23.70;98097.00;;;;5054537;28;20056;-65
2023/05/15 11:15:45;;;;;;;5.38;4.88;;;;;23.90;98094.00;;;;5054415;28;20123;-66
2023/05/15 11:18:12;;;;;;;5.40;4.88;;;;;23.60;98093.00;;;;5038142;28;20168;-65
2023/05/15 11:20:50;;;;;;;6.85;5.15;;;;;23.50;98092.00;;;;5064380;28;20117;-65
2023/05/15 11:23:21;;;;;;;5.95;5.00;;;;;23.70;98095.00;;;;5065427;28;20067;-68
2023/05/15 11:25:57;;;;;;;6.20;4.78;;;;;24.00;98089.00;;;;5072352;28;20049;-64
2023/05/15 11:28:26;;;;;;;6.50;5.63;;;;;23.90;98105.00;;;;5072989;28;20068;-65
2023/05/15 11:31:04;;;;;;;9.20;8.18;;;;;23.60;98108.00;;;;5074281;28;20060;-64
2023/05/15 11:33:31;;;;;;;12.77;9.27;;;;;23.30;98114.00;;;;5074670;28;20056;-65
2023/05/15 11:35:59;;;;;;;10.80;9.20;;;;;23.00;98114.00;;;;5076293;28;20037;-64
2023/05/15 11:38:26;;;;;;;11.73;9.48;;;;;22.70;98114.00;;;;5075104;28;20056;-64
2023/05/15 11:40:57;;;;;;;10.82;8.77;;;;;22.60;98110.00;;;;5073656;28;20529;-64
2023/05/15 11:43:25;;;;;;;10.40;8.50;;;;;22.50;98116.00;;;;5071728;28;20072;-65
2023/05/15 11:46:06;;;;;;;9.48;7.05;;;;;22.40;98107.00;;;;5070327;28;20055;-64
2023/05/15 11:48:40;;;;;;;7.63;5.97;;;;;22.30;98113.00;;;;5066653;28;20041;-64
2023/05/15 11:51:23;;;;;;;;;;;;;22.20;98114.00;;;;5058946;28;20571;-65
2023/05/15 11:53:51;;;;;;;8.38;5.32;;;;;22.10;98113.00;;;;5053287;28;19921;-65
2023/05/15 11:56:20;;;;;;;3.33;3.03;;;;;22.10;98104.00;;;;5035398;28;20139;-64
2023/05/15 11:58:48;;;;;;;3.08;2.78;;;;;22.00;98094.00;;;;5052730;28;20123;-64
2023/05/15 12:01:16;;;;;;;3.50;2.85;;;;;22.10;98105.00;;;;5051273;28;20051;-64
2023/05/15 12:03:45;;;;;;;3.15;2.85;;;;;22.10;98110.00;;;;5052700;28;20041;-66
2023/05/15 12:06:12;;;;;;;3.38;2.42;;;;;21.90;98117.00;;;;5051550;28;20053;-67
2023/05/15 12:08:40;;;;;;;2.08;1.98;;;;;22.00;98106.00;;;;5051575;28;20051;-67
2023/05/15 12:11:07;;;;;;;3.20;2.40;;;;;22.10;98108.00;;;;5034566;28;20498;-67
2023/05/15 12:13:34;;;;;;;2.53;2.33;;;;;22.20;98106.00;;;;5052127;28;20049;-67
2023/05/15 12:16:02;;;;;;;2.60;2.40;;;;;22.30;98104.00;;;;5034691;28;20041;-65
2023/05/15 12:18:32;;;;;;;4.30;2.65;;;;;22.50;98098.00;;;;5052200;28;20040;-65
2023/05/15 12:20:59;;;;;;;2.60;2.40;;;;;22.50;98097.00;;;;5052008;28;20045;-65
2023/05/15 12:23:27;;;;;;;2.40;2.20;;;;;22.60;98099.00;;;;5052092;28;20048;-65
2023/05/15 12:26:00;;;;;;;2.13;1.98;;;;;22.60;98101.00;;;;5050883;28;20052;-66